This is the latest recevied weather packets stored in our database for station/object DM4XI-13. If no packets are shown the sender has not sent any weather packets the latest 1 day(s).
| Time | Temp. | Humidity | Pressure | Rain* | Wind** | Luminosity | Snow |
|---|---|---|---|---|---|---|---|
| 1778083113 | 20° C | 51% | 1002.5 hPa | 0 mm | 0.45 m/s, 246° | 79 W/m² | - |
| 1778083052 | 20° C | 50% | 1002.5 hPa | 0 mm | 0.45 m/s, 250° | 82 W/m² | - |
| 1778082930 | 20° C | 49% | 1002.5 hPa | 0 mm | 0.45 m/s, 255° | 90 W/m² | - |
| 1778082869 | 20° C | 51% | 1002.3 hPa | 0 mm | 1.34 m/s, 293° | 94 W/m² | - |
| 1778082564 | 20° C | 48% | 1002.5 hPa | 0 mm | 0.89 m/s, 255° | 108 W/m² | - |
| 1778082503 | 20.56° C | 48% | 1002.5 hPa | 0 mm | 0 m/s | 112 W/m² | - |
| 1778082077 | 20° C | 48% | 1002.5 hPa | 0 mm | 0 m/s | 109 W/m² | - |
| 1778081954 | 20° C | 48% | 1002.6 hPa | 0 mm | 0 m/s | 103 W/m² | - |
| 1778081772 | 20° C | 48% | 1002.4 hPa | 0 mm | 0 m/s | 99 W/m² | - |
| 1778081711 | 20° C | 47% | 1002.6 hPa | 0 mm | 0 m/s | 100 W/m² | - |
| 1778081650 | 20° C | 46% | 1002.7 hPa | 0 mm | 0 m/s | 102 W/m² | - |
| 1778081589 | 20° C | 46% | 1002.7 hPa | 0 mm | 0 m/s | 103 W/m² | - |
| 1778081528 | 20° C | 47% | 1002.6 hPa | 0 mm | 0.45 m/s, 244° | 104 W/m² | - |
| 1778081101 | 20° C | 47% | 1002.4 hPa | 0 mm | 0.45 m/s, 243° | 98 W/m² | - |
| 1778080978 | 20° C | 46% | 1002.4 hPa | 0 mm | 0.45 m/s, 251° | 98 W/m² | - |
| 1778079819 | 21.67° C | 43% | 1002.8 hPa | 0 mm | 0.45 m/s, 190° | 181 W/m² | - |
| 1778079697 | 21.11° C | 46% | 1002.7 hPa | 0 mm | 0 m/s | 340 W/m² | - |
| 1778079636 | 21.11° C | 46% | 1002.7 hPa | 0 mm | 0 m/s | 320 W/m² | - |
| 1778079270 | 21.11° C | 47% | 1002.6 hPa | 0 mm | 0.45 m/s, 187° | 157 W/m² | - |
| 1778079148 | 21.67° C | 47% | 1002.7 hPa | 0 mm | 0.89 m/s, 7° | 161 W/m² | - |
| 1778078965 | 21.67° C | 45% | 1002.8 hPa | 0 mm | 0.89 m/s, 61° | 156 W/m² | - |
| 1778078843 | 21.67° C | 43% | 1002.8 hPa | 0 mm | 1.34 m/s, 354° | 179 W/m² | - |
| 1778078721 | 21.67° C | 45% | 1002.7 hPa | 0 mm | 0.45 m/s, 196° | 421 W/m² | - |
| 1778078538 | 21.67° C | 44% | 1002.7 hPa | 0 mm | 0.45 m/s, 130° | 460 W/m² | - |
| 1778078416 | 21.67° C | 42% | 1002.8 hPa | 0 mm | 0 m/s | 358 W/m² | - |
* Rain latest hour (hover to see other rain measurements)
** Current wind speed in m/s (hover to see current wind gust speed)